createdAt,value
2019-05-19T00:02:20.438Z,11.81
2019-05-19T00:04:48.879Z,11.70
2019-05-19T00:07:17.307Z,11.74
2019-05-19T00:09:45.745Z,11.78
2019-05-19T00:12:14.194Z,11.79
2019-05-19T00:14:42.618Z,11.79
2019-05-19T00:17:11.130Z,11.73
2019-05-19T00:19:39.556Z,11.72
2019-05-19T00:22:07.991Z,11.72
2019-05-19T00:24:36.442Z,11.62
2019-05-19T00:27:04.852Z,11.64
2019-05-19T00:29:33.310Z,11.58
2019-05-19T00:32:01.729Z,11.60
2019-05-19T00:34:30.166Z,11.61
2019-05-19T00:36:58.598Z,11.60
2019-05-19T00:39:27.026Z,11.46
2019-05-19T00:41:55.495Z,11.38
2019-05-19T00:44:23.927Z,11.31
2019-05-19T00:46:52.439Z,11.19
2019-05-19T00:49:20.895Z,11.11
2019-05-19T00:51:49.389Z,11.20
2019-05-19T00:54:17.885Z,11.25
2019-05-19T00:56:46.702Z,11.16
2019-05-19T00:59:15.348Z,11.03
2019-05-19T01:01:43.773Z,11.13
2019-05-19T01:04:12.210Z,11.16
2019-05-19T01:06:40.648Z,11.11
2019-05-19T01:09:09.133Z,11.13
2019-05-19T01:11:37.602Z,11.04
2019-05-19T01:14:06.082Z,10.98
2019-05-19T01:16:34.521Z,11.00
2019-05-19T01:19:02.963Z,10.96
2019-05-19T01:21:32.020Z,10.98
2019-05-19T01:24:00.476Z,10.90
2019-05-19T01:26:28.891Z,10.89
2019-05-19T01:28:57.339Z,10.93
2019-05-19T01:31:25.894Z,10.92
2019-05-19T01:33:54.278Z,10.93
2019-05-19T01:36:22.744Z,10.93
2019-05-19T01:38:51.144Z,10.93
2019-05-19T01:41:19.555Z,10.92
2019-05-19T01:43:48.097Z,10.87
2019-05-19T01:46:16.512Z,10.84
2019-05-19T01:48:45.018Z,10.85
2019-05-19T01:51:13.477Z,10.83
2019-05-19T01:53:41.894Z,10.80
2019-05-19T01:56:10.348Z,10.80
2019-05-19T01:58:38.757Z,10.79
2019-05-19T02:01:07.181Z,10.78
2019-05-19T02:03:35.646Z,10.72
2019-05-19T02:06:04.210Z,10.71
2019-05-19T02:08:32.639Z,10.69
2019-05-19T02:11:01.111Z,10.71
2019-05-19T02:13:29.511Z,10.72
2019-05-19T02:15:57.940Z,10.68
2019-05-19T02:18:26.426Z,10.64
2019-05-19T02:20:54.859Z,10.63
2019-05-19T02:23:23.293Z,10.64
2019-05-19T02:25:51.708Z,10.61
2019-05-19T02:28:20.157Z,10.60
2019-05-19T02:30:48.599Z,10.54
2019-05-19T02:33:17.031Z,10.52
2019-05-19T02:35:45.520Z,10.48
2019-05-19T02:38:13.924Z,10.36
2019-05-19T02:40:45.387Z,10.27
2019-05-19T02:43:15.272Z,10.18
2019-05-19T02:45:44.223Z,10.18
2019-05-19T02:48:14.498Z,10.17
2019-05-19T02:50:52.034Z,10.14
2019-05-19T02:53:15.857Z,10.10
2019-05-19T02:55:45.125Z,10.18
2019-05-19T02:58:14.008Z,10.21
2019-05-19T03:00:43.611Z,10.22
2019-05-19T03:03:12.019Z,10.20
2019-05-19T03:05:40.515Z,10.19
2019-05-19T03:08:08.939Z,10.15
2019-05-19T03:10:37.382Z,10.15
2019-05-19T03:13:05.850Z,10.19
2019-05-19T03:15:34.283Z,10.20
2019-05-19T03:18:02.780Z,10.19
2019-05-19T03:20:31.217Z,10.25
2019-05-19T03:22:59.727Z,10.23
2019-05-19T03:25:28.190Z,10.20
2019-05-19T03:27:56.788Z,10.20
2019-05-19T03:30:26.945Z,10.23
2019-05-19T03:32:56.990Z,10.23
2019-05-19T03:35:25.429Z,10.20
2019-05-19T03:37:53.844Z,10.21
2019-05-19T03:40:22.257Z,10.22
2019-05-19T03:42:51.376Z,10.22
2019-05-19T03:45:19.943Z,10.23
2019-05-19T03:47:48.477Z,10.22
2019-05-19T03:50:17.023Z,10.21
2019-05-19T03:52:45.428Z,10.26
2019-05-19T03:55:13.924Z,10.28
2019-05-19T03:57:42.369Z,10.30
2019-05-19T04:00:11.325Z,10.30
2019-05-19T04:02:39.784Z,10.33
2019-05-19T04:05:08.858Z,10.35
2019-05-19T04:07:37.291Z,10.40
2019-05-19T04:10:06.971Z,10.41
2019-05-19T04:12:35.400Z,10.44
2019-05-19T04:15:05.272Z,10.48
2019-05-19T04:17:33.693Z,10.51
2019-05-19T04:20:02.112Z,10.58
2019-05-19T04:22:30.561Z,10.63
2019-05-19T04:24:58.967Z,10.68
2019-05-19T04:27:27.414Z,10.70
2019-05-19T04:29:55.844Z,10.78
2019-05-19T04:32:24.265Z,10.75
2019-05-19T04:34:52.713Z,10.78
2019-05-19T04:37:21.131Z,10.90
2019-05-19T04:39:49.559Z,10.92
2019-05-19T04:42:18.009Z,11.00
2019-05-19T04:44:46.494Z,11.08
2019-05-19T04:47:14.959Z,11.16
2019-05-19T04:49:43.394Z,11.29
2019-05-19T04:52:11.815Z,11.38
2019-05-19T04:54:40.300Z,11.44
2019-05-19T04:57:08.711Z,11.58
2019-05-19T04:59:37.120Z,11.66
2019-05-19T05:02:05.573Z,11.86
2019-05-19T05:04:33.981Z,11.99
2019-05-19T05:07:02.423Z,12.16
2019-05-19T05:09:30.878Z,12.34
2019-05-19T05:11:59.291Z,12.42
2019-05-19T05:14:27.729Z,12.56
2019-05-19T05:16:56.153Z,12.67
2019-05-19T05:19:24.581Z,12.84
2019-05-19T05:21:53.026Z,12.97
2019-05-19T05:24:21.503Z,13.03
2019-05-19T05:26:49.947Z,13.17
2019-05-19T05:29:18.384Z,13.30
2019-05-19T05:31:46.817Z,13.42
2019-05-19T05:34:15.261Z,13.59
2019-05-19T05:36:43.745Z,13.64
2019-05-19T05:39:12.163Z,13.76
2019-05-19T05:41:40.596Z,13.88
2019-05-19T05:44:09.100Z,13.97
2019-05-19T05:46:37.533Z,14.13
2019-05-19T05:49:05.961Z,14.29
2019-05-19T05:51:34.382Z,14.61
2019-05-19T05:54:02.818Z,15.04
2019-05-19T05:56:31.240Z,15.62
2019-05-19T05:58:59.657Z,15.87
2019-05-19T06:01:28.105Z,16.54
2019-05-19T06:03:56.512Z,17.01
2019-05-19T06:06:25.130Z,17.57
2019-05-19T06:08:53.570Z,17.39
2019-05-19T06:11:22.216Z,17.54
2019-05-19T06:13:50.660Z,17.94
2019-05-19T06:16:19.143Z,18.41
2019-05-19T06:18:47.787Z,18.72
2019-05-19T06:21:16.217Z,19.07
2019-05-19T06:23:44.654Z,19.15
2019-05-19T06:26:13.096Z,19.34
2019-05-19T06:28:41.528Z,19.20
2019-05-19T06:31:09.937Z,18.62
2019-05-19T06:33:38.424Z,18.78
2019-05-19T06:36:08.703Z,18.78
2019-05-19T06:38:37.213Z,18.75
2019-05-19T06:41:05.658Z,19.26
2019-05-19T06:43:34.214Z,19.79
2019-05-19T06:46:04.235Z,19.94
2019-05-19T06:48:32.856Z,20.08
2019-05-19T06:51:01.364Z,19.91
2019-05-19T06:53:29.959Z,20.20
2019-05-19T06:55:58.454Z,20.77
2019-05-19T06:58:29.352Z,20.67
2019-05-19T07:00:59.407Z,20.26
2019-05-19T07:03:29.361Z,20.31
2019-05-19T07:05:58.066Z,20.73
2019-05-19T07:08:28.194Z,20.64
2019-05-19T07:10:56.844Z,21.01
2019-05-19T07:13:25.436Z,21.56
2019-05-19T07:15:54.125Z,21.81
2019-05-19T07:18:22.571Z,22.79
2019-05-19T07:20:51.287Z,22.87
2019-05-19T07:23:27.814Z,23.48
2019-05-19T07:25:50.062Z,23.61
2019-05-19T07:28:18.634Z,23.38
2019-05-19T07:30:47.441Z,23.53
2019-05-19T07:33:16.265Z,23.08
2019-05-19T07:35:44.648Z,22.85
2019-05-19T07:38:13.163Z,23.18
2019-05-19T07:40:41.666Z,23.06
2019-05-19T07:43:10.075Z,23.58
2019-05-19T07:45:38.506Z,23.56
2019-05-19T07:48:06.940Z,23.09
2019-05-19T07:50:38.018Z,23.48
2019-05-19T07:53:05.615Z,23.00
2019-05-19T07:55:34.281Z,23.17
2019-05-19T07:58:02.688Z,23.17
2019-05-19T08:00:31.257Z,23.55
2019-05-19T08:02:59.817Z,23.48
2019-05-19T08:05:29.776Z,23.81
2019-05-19T08:07:58.308Z,23.55
2019-05-19T08:10:26.711Z,22.96
2019-05-19T08:12:55.139Z,23.04
2019-05-19T08:15:23.643Z,22.83
2019-05-19T08:17:52.128Z,22.73
2019-05-19T08:20:21.035Z,22.60
2019-05-19T08:22:51.415Z,22.62
2019-05-19T08:25:19.670Z,22.30
2019-05-19T08:27:48.118Z,22.29
2019-05-19T08:30:17.568Z,22.58
2019-05-19T08:32:45.979Z,22.48
2019-05-19T08:35:14.602Z,22.66
2019-05-19T08:37:43.032Z,22.66
2019-05-19T08:40:11.916Z,22.66
2019-05-19T08:42:40.341Z,22.81
2019-05-19T08:45:09.713Z,22.77
2019-05-19T08:47:38.268Z,22.81
2019-05-19T08:50:08.520Z,22.84
2019-05-19T08:52:36.956Z,22.49
2019-05-19T08:55:06.622Z,21.94
2019-05-19T08:57:35.066Z,22.32
2019-05-19T09:00:04.685Z,22.23
2019-05-19T09:02:34.429Z,22.38
2019-05-19T09:05:03.249Z,22.16
2019-05-19T09:07:31.749Z,22.40
2019-05-19T09:10:00.382Z,22.09
2019-05-19T09:12:28.838Z,21.91
2019-05-19T09:14:57.281Z,21.87
2019-05-19T09:17:25.723Z,21.95
2019-05-19T09:19:54.160Z,21.93
2019-05-19T09:22:22.584Z,22.01
2019-05-19T09:24:51.004Z,22.09
2019-05-19T09:27:19.501Z,22.52
2019-05-19T09:29:47.928Z,22.42
2019-05-19T09:32:16.582Z,22.53
2019-05-19T09:34:45.054Z,22.28
2019-05-19T09:37:13.565Z,22.49
2019-05-19T09:39:42.022Z,22.34
2019-05-19T09:42:10.586Z,22.33
2019-05-19T09:44:39.021Z,22.40
2019-05-19T09:47:07.552Z,22.35
2019-05-19T09:49:36.342Z,22.31
2019-05-19T09:52:07.014Z,22.81
2019-05-19T09:54:44.710Z,22.71
2019-05-19T09:57:05.829Z,22.49
2019-05-19T09:59:34.259Z,22.64
2019-05-19T10:02:02.767Z,22.73
2019-05-19T10:04:31.246Z,22.95
2019-05-19T10:06:59.925Z,22.81
2019-05-19T10:09:47.161Z,22.59
2019-05-19T10:12:15.569Z,22.63
2019-05-19T10:14:43.984Z,22.58
2019-05-19T10:17:12.424Z,22.72
2019-05-19T10:19:40.873Z,22.65
2019-05-19T10:22:09.367Z,22.57
2019-05-19T10:24:37.785Z,22.63
2019-05-19T10:27:06.211Z,22.56
2019-05-19T10:29:34.654Z,22.52
2019-05-19T10:32:03.064Z,22.49
2019-05-19T10:34:31.502Z,22.62
2019-05-19T10:36:59.925Z,22.71
2019-05-19T10:39:28.399Z,22.64
2019-05-19T10:41:56.939Z,22.65
2019-05-19T10:44:25.354Z,22.67
2019-05-19T10:46:53.816Z,22.59
2019-05-19T10:49:22.372Z,22.53
2019-05-19T10:51:51.020Z,22.77
2019-05-19T10:54:19.551Z,22.75
2019-05-19T10:56:48.112Z,22.77
2019-05-19T10:59:16.541Z,22.91
2019-05-19T11:01:44.962Z,22.78
2019-05-19T11:04:13.358Z,22.85
2019-05-19T11:06:41.800Z,22.79
2019-05-19T11:09:10.229Z,22.87
2019-05-19T11:11:38.744Z,22.77
2019-05-19T11:14:07.250Z,23.00
2019-05-19T11:16:35.686Z,23.10
2019-05-19T11:19:04.246Z,23.24
2019-05-19T11:21:32.680Z,22.95
2019-05-19T11:24:01.144Z,23.31
2019-05-19T11:26:29.557Z,23.33
2019-05-19T11:28:57.996Z,23.39
2019-05-19T11:31:26.477Z,23.86
2019-05-19T11:33:54.907Z,23.27
2019-05-19T11:36:23.353Z,23.60
2019-05-19T11:38:51.768Z,23.52
2019-05-19T11:41:20.201Z,23.48
2019-05-19T11:43:48.677Z,23.35
2019-05-19T11:46:17.929Z,23.40
2019-05-19T11:48:46.390Z,23.30
2019-05-19T11:51:14.792Z,23.43
2019-05-19T11:53:43.282Z,23.43
2019-05-19T11:56:11.829Z,23.18
2019-05-19T11:58:40.251Z,23.41
2019-05-19T12:01:08.670Z,23.45
2019-05-19T12:03:37.084Z,23.72
2019-05-19T12:06:05.512Z,23.78
2019-05-19T12:08:33.964Z,23.85
2019-05-19T12:11:02.452Z,23.96
2019-05-19T12:13:39.440Z,24.00
2019-05-19T12:16:09.035Z,24.04
2019-05-19T12:18:37.437Z,23.81
2019-05-19T12:21:05.923Z,23.60
2019-05-19T12:23:35.261Z,23.46
2019-05-19T12:26:03.716Z,23.40
2019-05-19T12:28:32.219Z,23.66
2019-05-19T12:31:00.661Z,23.67
2019-05-19T12:33:29.153Z,23.58
2019-05-19T12:35:57.647Z,23.53
2019-05-19T12:38:26.081Z,23.47
2019-05-19T12:40:54.527Z,23.58
2019-05-19T12:43:22.927Z,23.71
2019-05-19T12:45:51.521Z,23.73
2019-05-19T12:48:20.154Z,23.59
2019-05-19T12:50:48.579Z,23.68
2019-05-19T12:53:17.032Z,23.67
2019-05-19T12:55:45.527Z,23.62
2019-05-19T12:58:13.976Z,23.76
2019-05-19T13:00:42.416Z,23.98
2019-05-19T13:03:10.822Z,24.25
2019-05-19T13:05:39.257Z,24.54
2019-05-19T13:08:08.641Z,24.40
2019-05-19T13:10:38.063Z,24.63
2019-05-19T13:13:06.526Z,24.57
2019-05-19T13:15:35.021Z,24.56
2019-05-19T13:18:03.721Z,24.39
2019-05-19T13:20:32.230Z,24.58
2019-05-19T13:23:00.637Z,24.17
2019-05-19T13:25:29.068Z,24.36
2019-05-19T13:27:57.491Z,24.15
2019-05-19T13:30:25.903Z,24.21
2019-05-19T13:32:54.330Z,24.16
2019-05-19T13:35:22.839Z,24.13
2019-05-19T13:37:51.485Z,24.26
2019-05-19T13:40:19.962Z,24.24
2019-05-19T13:42:48.393Z,24.44
2019-05-19T13:45:17.046Z,24.36
2019-05-19T13:47:45.481Z,24.28
2019-05-19T13:50:14.371Z,24.22
2019-05-19T13:52:42.796Z,24.25
2019-05-19T13:55:11.357Z,24.31
2019-05-19T13:57:39.800Z,24.38
2019-05-19T14:00:09.850Z,24.43
2019-05-19T14:02:38.251Z,24.47
2019-05-19T14:05:07.014Z,24.54
2019-05-19T14:07:35.471Z,24.51
2019-05-19T14:10:06.923Z,24.46
2019-05-19T14:12:35.424Z,24.53
2019-05-19T14:15:05.346Z,24.52
2019-05-19T14:17:33.830Z,24.58
2019-05-19T14:20:02.273Z,24.80
2019-05-19T14:22:31.073Z,24.79
2019-05-19T14:24:59.523Z,25.00
2019-05-19T14:27:30.725Z,24.97
2019-05-19T14:29:58.122Z,24.87
2019-05-19T14:32:26.511Z,24.92
2019-05-19T14:34:54.905Z,24.92
2019-05-19T14:37:23.335Z,25.04
2019-05-19T14:39:51.741Z,24.93
2019-05-19T14:42:37.737Z,24.82
2019-05-19T14:45:08.770Z,24.89
2019-05-19T14:47:37.226Z,24.85
2019-05-19T14:50:06.942Z,24.72
2019-05-19T14:52:35.356Z,24.75
2019-05-19T14:55:04.223Z,24.66
2019-05-19T14:57:44.448Z,24.52
2019-05-19T15:00:04.440Z,24.59
2019-05-19T15:02:32.874Z,24.60
2019-05-19T15:05:01.303Z,24.54
2019-05-19T15:07:29.715Z,24.68
2019-05-19T15:09:58.124Z,24.69
2019-05-19T15:12:26.550Z,24.76
2019-05-19T15:14:54.988Z,24.68
2019-05-19T15:17:23.525Z,24.54
2019-05-19T15:19:51.923Z,24.42
2019-05-19T15:22:20.428Z,24.37
2019-05-19T15:24:48.840Z,24.32
2019-05-19T15:27:17.264Z,24.23
2019-05-19T15:29:45.679Z,24.26
2019-05-19T15:32:14.095Z,24.31
2019-05-19T15:34:42.513Z,24.24
2019-05-19T15:37:10.937Z,24.08
2019-05-19T15:39:39.351Z,24.10
2019-05-19T15:42:07.790Z,24.00
2019-05-19T15:44:36.215Z,23.90
2019-05-19T15:47:04.702Z,23.78
2019-05-19T15:49:33.118Z,23.77
2019-05-19T15:52:04.873Z,23.83
2019-05-19T15:54:31.690Z,23.80
2019-05-19T15:57:00.136Z,23.96
2019-05-19T15:59:28.557Z,23.99
2019-05-19T16:01:56.986Z,23.92
2019-05-19T16:04:25.483Z,23.96
2019-05-19T16:06:53.884Z,23.72
2019-05-19T16:09:22.325Z,23.76
2019-05-19T16:11:50.733Z,23.83
2019-05-19T16:14:19.150Z,23.73
2019-05-19T16:16:47.657Z,23.58
2019-05-19T16:19:16.069Z,23.64
2019-05-19T16:21:44.536Z,23.65
2019-05-19T16:24:12.958Z,23.57
2019-05-19T16:26:41.376Z,23.54
2019-05-19T16:29:09.798Z,23.74
2019-05-19T16:31:38.201Z,23.57
2019-05-19T16:34:06.925Z,23.55
2019-05-19T16:36:35.379Z,23.57
2019-05-19T16:39:05.076Z,23.61
2019-05-19T16:41:33.502Z,23.59
2019-05-19T16:44:01.956Z,23.78
2019-05-19T16:46:30.348Z,23.70
2019-05-19T16:48:58.850Z,23.75
2019-05-19T16:51:27.347Z,23.77
2019-05-19T16:53:57.662Z,23.76
2019-05-19T16:56:26.107Z,23.80
2019-05-19T16:58:54.504Z,23.80
2019-05-19T17:01:23.005Z,23.71
2019-05-19T17:03:51.456Z,23.65
2019-05-19T17:06:19.845Z,23.70
2019-05-19T17:08:48.358Z,23.53
2019-05-19T17:11:18.594Z,23.44
2019-05-19T17:13:47.023Z,23.33
2019-05-19T17:16:15.466Z,23.43
2019-05-19T17:18:43.878Z,23.42
2019-05-19T17:21:12.303Z,23.38
2019-05-19T17:23:40.755Z,23.38
2019-05-19T17:26:09.164Z,23.33
2019-05-19T17:28:37.587Z,23.19
2019-05-19T17:31:07.758Z,23.05
2019-05-19T17:33:36.378Z,23.01
2019-05-19T17:36:04.902Z,22.94
2019-05-19T17:38:33.316Z,22.93
2019-05-19T17:41:01.737Z,22.91
2019-05-19T17:43:30.163Z,22.85
2019-05-19T17:45:58.581Z,22.82
2019-05-19T17:48:27.197Z,22.72
2019-05-19T17:50:55.931Z,22.73
2019-05-19T17:53:24.337Z,22.73
2019-05-19T17:55:54.399Z,22.73
2019-05-19T17:58:23.688Z,22.78
2019-05-19T18:00:52.109Z,22.71
2019-05-19T18:03:20.674Z,22.68
2019-05-19T18:05:49.137Z,22.64
2019-05-19T18:08:17.540Z,22.60
2019-05-19T18:10:45.937Z,22.58
2019-05-19T18:13:14.360Z,22.42
2019-05-19T18:15:42.792Z,22.45
2019-05-19T18:18:11.276Z,22.35
2019-05-19T18:20:39.922Z,22.32
2019-05-19T18:23:08.353Z,22.29
2019-05-19T18:25:36.765Z,22.27
2019-05-19T18:28:05.225Z,22.22
2019-05-19T18:30:33.734Z,22.17
2019-05-19T18:33:02.246Z,22.11
2019-05-19T18:35:30.704Z,21.97
2019-05-19T18:37:59.190Z,21.85
2019-05-19T18:40:27.644Z,21.77
2019-05-19T18:42:56.097Z,21.68
2019-05-19T18:45:24.746Z,21.56
2019-05-19T18:47:53.294Z,21.52
2019-05-19T18:50:21.670Z,21.49
2019-05-19T18:52:50.111Z,21.39
2019-05-19T18:55:18.551Z,21.33
2019-05-19T18:57:46.989Z,21.18
2019-05-19T19:00:18.520Z,21.12
2019-05-19T19:02:48.041Z,20.91
2019-05-19T19:05:16.854Z,20.77
2019-05-19T19:07:49.647Z,20.69
2019-05-19T19:10:19.227Z,20.59
2019-05-19T19:12:48.143Z,20.52
2019-05-19T19:15:16.677Z,20.42
2019-05-19T19:17:45.049Z,20.40
2019-05-19T19:20:13.924Z,20.43
2019-05-19T19:22:42.340Z,20.43
2019-05-19T19:25:10.957Z,20.49
2019-05-19T19:27:39.460Z,20.49
2019-05-19T19:30:08.923Z,20.34
2019-05-19T19:32:37.476Z,20.32
2019-05-19T19:35:07.405Z,20.08
2019-05-19T19:37:35.901Z,19.96
2019-05-19T19:40:06.451Z,19.96
2019-05-19T19:42:34.900Z,19.97
2019-05-19T19:45:03.561Z,19.90
2019-05-19T19:47:31.961Z,19.92
2019-05-19T19:50:00.425Z,19.79
2019-05-19T19:52:28.870Z,19.74
2019-05-19T19:54:57.286Z,19.74
2019-05-19T19:57:25.709Z,19.68
2019-05-19T19:59:54.115Z,19.58
2019-05-19T20:02:22.519Z,19.60
2019-05-19T20:04:50.956Z,19.61
2019-05-19T20:07:19.404Z,19.56
2019-05-19T20:09:47.829Z,19.56
2019-05-19T20:12:16.308Z,19.50
2019-05-19T20:14:44.803Z,19.47
2019-05-19T20:17:13.257Z,19.43
2019-05-19T20:19:41.728Z,19.33
2019-05-19T20:22:10.150Z,19.31
2019-05-19T20:24:38.595Z,19.40
2019-05-19T20:27:07.080Z,19.46
2019-05-19T20:29:35.501Z,19.41
2019-05-19T20:32:03.997Z,19.40
2019-05-19T20:34:32.698Z,19.34
2019-05-19T20:37:01.213Z,19.33
2019-05-19T20:39:30.087Z,19.28
2019-05-19T20:41:58.513Z,19.22
2019-05-19T20:44:27.007Z,19.13
2019-05-19T20:46:55.428Z,19.06
2019-05-19T20:49:23.925Z,18.92
2019-05-19T20:51:52.337Z,18.90
2019-05-19T20:54:20.772Z,18.85
2019-05-19T20:56:49.199Z,18.84
2019-05-19T20:59:17.673Z,18.76
2019-05-19T21:01:46.152Z,18.71
2019-05-19T21:04:14.654Z,18.69
2019-05-19T21:06:43.070Z,18.62
2019-05-19T21:09:11.495Z,18.57
2019-05-19T21:11:39.913Z,18.52
2019-05-19T21:14:10.786Z,18.49
2019-05-19T21:16:39.213Z,18.42
2019-05-19T21:19:07.672Z,18.37
2019-05-19T21:21:36.097Z,18.33
2019-05-19T21:24:04.512Z,18.30
2019-05-19T21:26:32.930Z,18.28
2019-05-19T21:29:01.446Z,18.33
2019-05-19T21:31:29.861Z,18.26
2019-05-19T21:33:58.270Z,18.17
2019-05-19T21:36:26.702Z,18.11
2019-05-19T21:38:55.109Z,18.02
2019-05-19T21:41:23.522Z,18.07
2019-05-19T21:43:53.411Z,17.99
2019-05-19T21:46:21.876Z,17.89
2019-05-19T21:48:50.322Z,17.86
2019-05-19T21:51:18.756Z,17.76
2019-05-19T21:53:48.366Z,17.67
2019-05-19T21:56:16.814Z,17.58
2019-05-19T21:58:45.212Z,17.57
2019-05-19T22:01:22.711Z,17.51
2019-05-19T22:03:44.244Z,17.52
2019-05-19T22:06:12.719Z,17.48
2019-05-19T22:08:41.249Z,17.45
2019-05-19T22:11:09.679Z,17.41
2019-05-19T22:13:38.226Z,17.37
2019-05-19T22:16:12.935Z,17.25
2019-05-19T22:18:36.775Z,17.16
2019-05-19T22:21:05.210Z,17.06
2019-05-19T22:23:33.638Z,17.04
2019-05-19T22:26:02.065Z,17.03
2019-05-19T22:28:30.478Z,16.99
2019-05-19T22:30:58.908Z,16.93
2019-05-19T22:33:27.384Z,16.86
2019-05-19T22:35:55.826Z,16.82
2019-05-19T22:38:24.222Z,16.87
2019-05-19T22:40:52.629Z,16.91
2019-05-19T22:43:21.069Z,16.81
2019-05-19T22:45:49.490Z,16.55
2019-05-19T22:48:17.914Z,16.46
2019-05-19T22:50:47.184Z,16.52
2019-05-19T22:53:15.599Z,16.54
2019-05-19T22:55:44.046Z,16.42
2019-05-19T22:58:12.474Z,16.44
2019-05-19T23:00:40.951Z,16.40
2019-05-19T23:03:09.472Z,16.36
2019-05-19T23:05:37.887Z,16.25
2019-05-19T23:08:06.310Z,16.24
2019-05-19T23:10:35.986Z,16.23
2019-05-19T23:13:04.397Z,16.03
2019-05-19T23:15:32.832Z,16.05
2019-05-19T23:18:01.329Z,15.83
2019-05-19T23:20:29.759Z,15.80
2019-05-19T23:22:58.188Z,15.80
2019-05-19T23:25:26.625Z,15.90
2019-05-19T23:27:55.050Z,15.82
2019-05-19T23:30:23.512Z,15.66
2019-05-19T23:32:51.939Z,15.67
2019-05-19T23:35:20.365Z,15.66
2019-05-19T23:37:48.797Z,15.68
2019-05-19T23:40:17.288Z,15.58
2019-05-19T23:42:45.722Z,15.54
2019-05-19T23:45:16.414Z,15.48
2019-05-19T23:47:44.804Z,15.51
2019-05-19T23:50:13.378Z,15.56
2019-05-19T23:52:41.813Z,15.65
2019-05-19T23:55:10.574Z,15.65
2019-05-19T23:57:39.014Z,15.64
